Item Display Status Serial CT Sensor

Mooring Depth: 1 m

 

Deployed Sensor

  • Serial Number: 12490
  • NDBC Property Number: 38948
  • Start Date: 12/6/2018 (16:32:05 Z)
  • End Date: Currently Active
Water Temperature [°C]     6 entries per hour
Showing data from 11/12/2019 (07:00:00 Z) to 11/11/2019 (00:00:01 Z)
Previous Next [ Day | 3-Days | 7-Days ]
First Last
Prev [ Day | 3-Days | 7-Days ] Next
First Last

Start Time:     :
End Time:     :     
Time (in GMT) :00 :50 :40 :30 :20 :10
Previous Next [ Day | 3-Days | 7-Days ]
First Last
Prev [ Day | 3-Days | 7-Days ] Next
First Last


123 => good data
MM => data is determined as missing
-- => data not received/configured
Back to Top Back to Top
11/12/2019 07:00 to 6:10 24.051 24.053 24.062 24.056 24.062 24.061
11/12/2019 06:00 to 5:10 24.062 24.062 24.063 24.068 24.072 24.070
11/12/2019 05:00 to 4:10 24.077 24.078 24.083 24.079 24.082 24.081
11/12/2019 04:00 to 3:10 24.085 24.088 24.085 24.083 24.097 24.095
11/12/2019 03:00 to 2:10 24.098 24.103 24.103 24.104 24.109 24.114
11/12/2019 02:00 to 1:10 24.120 24.122 24.128 24.145 24.150 24.151
11/12/2019 01:00 to 0:10 24.159 24.160 24.177 24.171 24.190 24.199
11/12/2019 00:00 to 23:10 24.215 24.220 24.224 24.220 24.228 24.236
11/11/2019 23:00 to 22:10 24.241 24.233 24.247 24.242 24.243 24.262
11/11/2019 22:00 to 21:10 24.261 24.228 24.233 24.209 24.215 24.215
11/11/2019 21:00 to 20:10 24.223 24.202 24.203 24.198 24.196 24.192
11/11/2019 20:00 to 19:10 24.179 24.161 24.158 24.154 24.154 24.128
11/11/2019 19:00 to 18:10 24.123 24.122 24.137 24.104 24.101 24.107
11/11/2019 18:00 to 17:10 24.079 24.081 24.066 24.063 24.056 24.048
11/11/2019 17:00 to 16:10 24.042 24.041 24.038 24.035 24.033 24.028
11/11/2019 16:00 to 15:10 24.027 24.028 24.026 24.024 24.023 24.021
11/11/2019 15:00 to 14:10 24.023 24.017 24.025 24.022 24.023 24.021
11/11/2019 14:00 to 13:10 24.022 24.015 24.018 24.021 24.015 24.017
11/11/2019 13:00 to 12:10 24.026 24.026 24.022 24.018 24.022 24.030
11/11/2019 12:00 to 11:10 24.028 24.022 24.022 24.031 24.027 24.029
11/11/2019 11:00 to 10:10 24.020 24.028 24.025 24.034 24.040 24.037
11/11/2019 10:00 to 9:10 24.040 24.034 24.026 24.040 24.035 24.033
11/11/2019 09:00 to 8:10 24.037 24.042 24.036 24.042 24.028 24.043
11/11/2019 08:00 to 7:10 24.037 24.044 24.042 24.039 24.041 24.029
11/11/2019 07:00 to 6:10 24.031 24.030 24.037 24.028 24.018 24.030
11/11/2019 06:00 to 5:10 24.037 24.031 24.032 24.036 24.029 24.023
11/11/2019 05:00 to 4:10 24.040 24.031 24.038 24.051 24.044 24.053
11/11/2019 04:00 to 3:10 24.053 24.050 24.049 24.044 24.055 24.062
11/11/2019 03:00 to 2:10 24.063 24.066 24.064 24.077 24.071 24.074
11/11/2019 02:00 to 1:10 24.077 24.090 24.082 24.095 24.108 24.104
11/11/2019 01:00 to 0:10 24.117 24.119 24.131 24.128 24.126 24.137

 

 

 

Conductivity [S/m]     6 entries per hour
Showing data from 11/12/2019 (07:00:00 Z) to 11/11/2019 (00:00:01 Z)
Previous Next [ Day | 3-Days | 7-Days ]
First Last
Prev [ Day | 3-Days | 7-Days ] Next
First Last

Start Time:     :
End Time:     :     
Time (in GMT) :00 :50 :40 :30 :20 :10
Previous Next [ Day | 3-Days | 7-Days ]
First Last
Prev [ Day | 3-Days | 7-Days ] Next
First Last


123 => good data
MM => data is determined as missing
-- => data not received/configured
Back to Top Back to Top
11/12/2019 07:00 to 6:10 5.25281 5.25288 5.25368 5.25306 5.25370 5.25370
11/12/2019 06:00 to 5:10 5.25395 5.25400 5.25396 5.25442 5.25492 5.25461
11/12/2019 05:00 to 4:10 5.25550 5.25525 5.25621 5.25555 5.25619 5.25601
11/12/2019 04:00 to 3:10 5.25634 5.25667 5.25623 5.25620 5.25760 5.25762
11/12/2019 03:00 to 2:10 5.25764 5.25839 5.25841 5.25872 5.25901 5.25956
11/12/2019 02:00 to 1:10 5.25994 5.26080 5.26082 5.26269 5.26334 5.26356
11/12/2019 01:00 to 0:10 5.26451 5.26438 5.26624 5.26550 5.26754 5.26839
11/12/2019 00:00 to 23:10 5.26912 5.27079 5.27150 5.27109 5.27136 5.27267
11/11/2019 23:00 to 22:10 5.27318 5.27238 5.27386 5.27327 5.27322 5.27547
11/11/2019 22:00 to 21:10 5.27540 5.27187 5.27231 5.26963 5.27016 5.27037
11/11/2019 21:00 to 20:10 5.27123 5.26905 5.26905 5.26860 5.26831 5.26799
11/11/2019 20:00 to 19:10 5.26646 5.26481 5.26427 5.26381 5.26368 5.26100
11/11/2019 19:00 to 18:10 5.26044 5.26042 5.26194 5.25845 5.25806 5.25826
11/11/2019 18:00 to 17:10 5.25593 5.25598 5.25455 5.25400 5.25299 5.25205
11/11/2019 17:00 to 16:10 5.25167 5.25160 5.25134 5.25108 5.25073 5.25007
11/11/2019 16:00 to 15:10 5.25008 5.25017 5.24992 5.24981 5.24973 5.24942
11/11/2019 15:00 to 14:10 5.24967 5.24900 5.24966 5.24942 5.24954 5.24942
11/11/2019 14:00 to 13:10 5.24935 5.24881 5.24892 5.24939 5.24838 5.24884
11/11/2019 13:00 to 12:10 5.24959 5.24964 5.24934 5.24891 5.24936 5.25000
11/11/2019 12:00 to 11:10 5.24995 5.24936 5.24922 5.25017 5.24971 5.24997
11/11/2019 11:00 to 10:10 5.24889 5.24963 5.24954 5.25035 5.25102 5.25054
11/11/2019 10:00 to 9:10 5.25091 5.25015 5.24949 5.25086 5.25041 5.25021
11/11/2019 09:00 to 8:10 5.25027 5.25092 5.25027 5.25066 5.24943 5.25061
11/11/2019 08:00 to 7:10 5.25016 5.25037 5.25063 5.24992 5.25041 5.24942
11/11/2019 07:00 to 6:10 5.24952 5.24935 5.25007 5.24909 5.24807 5.24939
11/11/2019 06:00 to 5:10 5.24966 5.24923 5.24929 5.24981 5.24911 5.24878
11/11/2019 05:00 to 4:10 5.24993 5.24969 5.24998 5.25105 5.25081 5.25144
11/11/2019 04:00 to 3:10 5.25118 5.25090 5.25085 5.25065 5.25161 5.25207
11/11/2019 03:00 to 2:10 5.25261 5.25276 5.25291 5.25398 5.25355 5.25380
11/11/2019 02:00 to 1:10 5.25417 5.25523 5.25481 5.25630 5.25708 5.25728
11/11/2019 01:00 to 0:10 5.25845 5.25840 5.25946 5.25918 5.25929 5.26080

 

 

 

Salinity [psu]     6 entries per hour
Showing data from 11/12/2019 (07:00:00 Z) to 11/11/2019 (00:00:01 Z)
Previous Next [ Day | 3-Days | 7-Days ]
First Last
Prev [ Day | 3-Days | 7-Days ] Next
First Last

Start Time:     :
End Time:     :     
Time (in GMT) :00 :50 :40 :30 :20 :10
Previous Next [ Day | 3-Days | 7-Days ]
First Last
Prev [ Day | 3-Days | 7-Days ] Next
First Last


123 => good data
MM => data is determined as missing
-- => data not received/configured
Back to Top Back to Top
11/12/2019 07:00 to 6:10 35.34 35.34 35.33 35.33 35.34 35.34
11/12/2019 06:00 to 5:10 35.34 35.34 35.34 35.34 35.34 35.34
11/12/2019 05:00 to 4:10 35.34 35.33 35.34 35.34 35.34 35.34
11/12/2019 04:00 to 3:10 35.34 35.34 35.34 35.34 35.34 35.34
11/12/2019 03:00 to 2:10 35.34 35.34 35.34 35.34 35.34 35.34
11/12/2019 02:00 to 1:10 35.34 35.34 35.34 35.34 35.34 35.34
11/12/2019 01:00 to 0:10 35.34 35.34 35.34 35.34 35.34 35.34
11/12/2019 00:00 to 23:10 35.33 35.34 35.34 35.34 35.34 35.34
11/11/2019 23:00 to 22:10 35.34 35.34 35.34 35.34 35.34 35.34
11/11/2019 22:00 to 21:10 35.34 35.34 35.34 35.34 35.34 35.34
11/11/2019 21:00 to 20:10 35.34 35.34 35.34 35.34 35.34 35.34
11/11/2019 20:00 to 19:10 35.34 35.34 35.34 35.34 35.34 35.34
11/11/2019 19:00 to 18:10 35.34 35.34 35.34 35.34 35.34 35.33
11/11/2019 18:00 to 17:10 35.34 35.34 35.34 35.34 35.33 35.33
11/11/2019 17:00 to 16:10 35.34 35.34 35.34 35.34 35.34 35.33
11/11/2019 16:00 to 15:10 35.34 35.34 35.34 35.34 35.34 35.33
11/11/2019 15:00 to 14:10 35.34 35.33 35.33 35.33 35.33 35.34
11/11/2019 14:00 to 13:10 35.33 35.34 35.33 35.34 35.33 35.33
11/11/2019 13:00 to 12:10 35.33 35.33 35.33 35.33 35.33 35.33
11/11/2019 12:00 to 11:10 35.33 35.33 35.33 35.33 35.33 35.33
11/11/2019 11:00 to 10:10 35.33 35.33 35.33 35.33 35.33 35.33
11/11/2019 10:00 to 9:10 35.33 35.33 35.33 35.33 35.33 35.33
11/11/2019 09:00 to 8:10 35.33 35.33 35.33 35.33 35.33 35.33
11/11/2019 08:00 to 7:10 35.33 35.32 35.33 35.32 35.33 35.33
11/11/2019 07:00 to 6:10 35.33 35.33 35.33 35.33 35.33 35.33
11/11/2019 06:00 to 5:10 35.32 35.33 35.33 35.33 35.33 35.33
11/11/2019 05:00 to 4:10 35.32 35.33 35.33 35.32 35.33 35.32
11/11/2019 04:00 to 3:10 35.32 35.32 35.32 35.33 35.33 35.32
11/11/2019 03:00 to 2:10 35.33 35.32 35.33 35.33 35.33 35.33
11/11/2019 02:00 to 1:10 35.33 35.32 35.33 35.33 35.32 35.33
11/11/2019 01:00 to 0:10 35.33 35.33 35.32 35.32 35.33 35.33